Time;durP1;ratioP1;P1;durP2;ratioP2;P2;SDS_P1;SDS_P2;PMS_P1;PMS_P2;Temp;Humidity;BMP_temperature;BMP_pressure;BME280_temperature;BME280_humidity;BME280_pressure;Samples;Min_cycle;Max_cycle;Signal;HPM_P1;HPM_P2
2023/12/28 00:05:27;;;;;;;89.90;35.70;;;;;;;0.25;89.08;98813.33;436178;1251;107458;-41
2023/12/28 00:15:35;;;;;;;127.00;48.90;;;;;;;0.24;89.32;98799.20;436209;1254;96676;-40
2023/12/28 00:25:41;;;;;;;87.00;35.90;;;;;;;0.21;89.38;98789.08;435642;1254;97503;-41
2023/12/28 00:35:47;;;;;;;81.30;36.30;;;;;;;0.29;89.35;98780.98;435358;1250;110353;-39
2023/12/28 00:45:54;;;;;;;90.00;40.80;;;;;;;0.33;89.55;98774.34;435310;1250;109131;-39
2023/12/28 00:56:01;;;;;;;94.00;41.10;;;;;;;0.25;89.67;98759.15;435419;1249;259678;-38
2023/12/28 01:06:08;;;;;;;77.90;34.90;;;;;;;0.25;89.58;98735.95;435395;1254;110210;-40
2023/12/28 01:16:14;;;;;;;73.20;33.60;;;;;;;0.29;89.61;98720.97;435363;1249;107957;-41
2023/12/28 01:26:21;;;;;;;92.50;38.90;;;;;;;0.30;89.85;98722.63;435410;1254;99221;-42
2023/12/28 01:46:36;;;;;;;51.20;24.30;;;;;;;0.41;89.90;98723.11;435457;1250;107401;-39
2023/12/28 01:56:44;;;;;;;64.50;30.10;;;;;;;0.47;89.78;98710.16;435472;1250;98817;-40
2023/12/28 02:06:49;;;;;;;81.40;35.90;;;;;;;0.46;90.03;98683.20;435486;1254;108264;-40
2023/12/28 02:16:55;;;;;;;62.20;28.60;;;;;;;0.61;90.22;98664.31;435386;1251;99237;-42
2023/12/28 02:27:02;;;;;;;58.30;27.70;;;;;;;0.85;90.26;98649.66;435389;1264;111818;-40
2023/12/28 02:37:08;;;;;;;43.70;20.60;;;;;;;0.98;90.33;98640.13;436378;1253;107680;-39
2023/12/28 02:47:15;;;;;;;40.60;22.40;;;;;;;1.09;90.66;98624.84;435470;1251;99234;-40
2023/12/28 03:07:28;;;;;;;27.30;14.80;;;;;;;1.78;91.24;98590.00;435195;1250;107574;-40
2023/12/28 03:17:36;;;;;;;23.80;14.50;;;;;;;2.19;91.55;98581.23;435410;1254;99211;-39
2023/12/28 03:27:44;;;;;;;28.00;15.40;;;;;;;2.51;91.62;98580.18;435404;1254;107998;-39
2023/12/28 03:37:51;;;;;;;20.00;11.80;;;;;;;2.63;91.44;98571.96;435326;1253;98019;-39
2023/12/28 03:47:57;;;;;;;16.70;10.20;;;;;;;2.81;91.46;98572.80;435361;1249;112193;-40
2023/12/28 03:58:03;;;;;;;22.90;12.20;;;;;;;2.91;91.22;98561.69;435312;1249;108297;-40
2023/12/28 04:08:11;;;;;;;29.80;15.90;;;;;;;2.92;91.46;98558.60;435472;1253;99129;-41
2023/12/28 04:18:18;;;;;;;15.60;9.60;;;;;;;3.04;91.41;98545.60;435305;1250;112231;-40
2023/12/28 04:28:25;;;;;;;12.70;8.00;;;;;;;3.14;91.49;98543.48;435318;1250;107577;-38
2023/12/28 04:38:32;;;;;;;18.50;10.50;;;;;;;3.29;91.61;98547.69;435434;1250;99224;-39
2023/12/28 04:48:38;;;;;;;16.70;9.50;;;;;;;3.34;91.60;98542.55;435341;1254;111057;-38
2023/12/28 04:58:45;;;;;;;14.90;7.40;;;;;;;3.55;91.64;98527.77;435401;1254;108206;-39
2023/12/28 05:08:52;;;;;;;14.20;8.50;;;;;;;3.74;91.60;98511.12;435407;1250;99228;-40
2023/12/28 05:19:00;;;;;;;20.20;10.00;;;;;;;3.81;91.37;98500.69;435341;1253;106578;-41
2023/12/28 05:29:07;;;;;;;11.20;6.50;;;;;;;3.85;91.23;98489.17;435422;1250;99314;-39
2023/12/28 05:39:14;;;;;;;10.80;6.60;;;;;;;3.94;91.29;98481.21;435329;1250;111940;-39
2023/12/28 05:49:21;;;;;;;13.40;8.40;;;;;;;4.06;91.13;98487.83;435374;1253;107932;-40
2023/12/28 05:59:27;;;;;;;11.50;8.10;;;;;;;4.19;91.00;98474.41;435376;1253;99243;-42
2023/12/28 06:09:36;;;;;;;12.00;7.60;;;;;;;4.28;90.80;98481.73;435328;1249;107572;-40
2023/12/28 06:19:42;;;;;;;19.80;11.80;;;;;;;4.31;90.74;98477.84;435499;1253;99201;-39
2023/12/28 06:29:49;;;;;;;13.30;7.90;;;;;;;4.29;90.56;98491.68;435431;1254;110834;-39
2023/12/28 06:39:55;;;;;;;18.10;9.60;;;;;;;4.33;90.33;98491.90;435414;1255;109379;-40
2023/12/28 06:50:02;;;;;;;22.60;11.20;;;;;;;4.39;90.45;98502.67;435423;1251;99230;-39
2023/12/28 07:00:11;;;;;;;21.50;11.20;;;;;;;4.44;90.40;98525.30;435507;1254;107649;-40
2023/12/28 07:10:18;;;;;;;14.00;8.00;;;;;;;4.59;90.09;98545.70;435458;1253;98824;-41
2023/12/28 07:20:24;;;;;;;17.10;9.30;;;;;;;4.74;90.09;98547.66;435349;1253;111165;-39
2023/12/28 07:30:31;;;;;;;13.00;7.70;;;;;;;4.81;90.00;98531.70;435162;1256;108397;-40
2023/12/28 07:40:39;;;;;;;16.00;7.20;;;;;;;4.93;89.66;98538.88;435456;1254;97947;-40
2023/12/28 07:50:47;;;;;;;18.50;10.00;;;;;;;5.05;89.56;98543.65;435305;1251;107203;-40
2023/12/28 08:10:59;;;;;;;17.30;9.20;;;;;;;5.93;88.60;98557.74;435557;1254;111778;-40
2023/12/28 08:21:07;;;;;;;17.80;8.70;;;;;;;6.28;88.82;98559.94;435416;1256;108261;-40
2023/12/28 08:31:15;;;;;;;16.20;10.00;;;;;;;7.41;88.69;98584.96;435487;1256;98021;-40
2023/12/28 08:41:21;;;;;;;18.70;11.20;;;;;;;8.21;87.42;98588.34;435477;1256;108722;-40
2023/12/28 08:51:28;;;;;;;13.50;10.10;;;;;;;8.65;86.22;98585.17;435236;1249;99553;-40
2023/12/28 09:01:35;;;;;;;16.60;10.50;;;;;;;8.62;84.86;98563.95;435445;1256;112006;-40
2023/12/28 09:11:43;;;;;;;15.80;10.10;;;;;;;8.39;83.67;98562.63;435371;1253;108435;-39
2023/12/28 09:21:49;;;;;;;15.90;9.90;;;;;;;8.37;82.37;98563.45;435383;1250;99237;-40
2023/12/28 09:31:56;;;;;;;17.30;9.60;;;;;;;8.36;82.19;98559.89;435456;1253;108032;-39
2023/12/28 09:42:11;;;;;;;14.40;9.30;;;;;;;8.51;81.63;98554.37;435412;1256;98031;-41
2023/12/28 09:52:18;;;;;;;15.90;10.20;;;;;;;8.43;81.60;98557.52;435473;1256;111714;-40
2023/12/28 10:02:25;;;;;;;31.40;13.50;;;;;;;8.20;81.41;98551.14;435340;1254;108950;-39
2023/12/28 10:12:31;;;;;;;32.30;13.20;;;;;;;8.06;80.74;98563.83;435239;1251;98570;-40
2023/12/28 10:22:38;;;;;;;25.10;11.90;;;;;;;7.99;80.73;98564.39;435436;1250;106432;-41
2023/12/28 10:32:46;;;;;;;16.80;9.50;;;;;;;8.05;80.77;98566.38;435355;1253;99221;-40
2023/12/28 10:42:53;;;;;;;14.40;9.90;;;;;;;8.21;80.98;98542.97;435410;1253;112046;-39
2023/12/28 11:13:25;;;;;;;23.20;10.80;;;;;;;8.33;80.91;98535.89;435440;1250;107730;-40
2023/12/28 11:23:33;;;;;;;18.10;10.10;;;;;;;8.37;80.74;98530.75;435424;1253;99266;-40
2023/12/28 11:33:46;;;;;;;16.60;8.90;;;;;;;8.43;80.80;98513.38;435302;1257;112532;-40
2023/12/28 11:43:55;;;;;;;13.70;9.30;;;;;;;8.30;79.82;98519.45;435403;1254;107099;-40
2023/12/28 11:54:01;;;;;;;19.60;11.80;;;;;;;8.08;80.24;98520.93;435508;1254;98840;-39
2023/12/28 12:14:14;;;;;;;19.20;11.20;;;;;;;8.18;80.70;98511.16;435378;1264;98014;-40
2023/12/28 12:24:22;;;;;;;17.10;10.20;;;;;;;8.28;81.01;98500.23;435678;1251;110335;-40
2023/12/28 12:34:27;;;;;;;17.40;10.60;;;;;;;8.24;80.72;98505.23;435389;1256;108722;-40
2023/12/28 12:44:35;;;;;;;18.90;10.90;;;;;;;8.16;80.83;98501.79;435473;1250;99237;-41
2023/12/28 13:04:48;;;;;;;22.60;11.60;;;;;;;8.16;80.49;98485.83;435338;1263;99241;-40
2023/12/28 13:14:54;;;;;;;24.90;12.90;;;;;;;8.14;80.62;98483.49;435292;1257;113047;-40
2023/12/28 13:35:06;;;;;;;30.30;14.10;;;;;;;7.89;80.67;98484.69;435313;1253;99243;-39
2023/12/28 13:45:13;;;;;;;23.50;12.60;;;;;;;7.85;80.73;98494.89;435088;1256;110184;-40
2023/12/28 13:55:21;;;;;;;25.40;14.40;;;;;;;7.88;80.86;98498.42;435305;1251;107828;-42
2023/12/28 14:05:28;;;;;;;23.20;13.60;;;;;;;7.78;81.02;98505.42;435314;1251;98023;-40
2023/12/28 14:25:44;;;;;;;30.70;14.40;;;;;;;7.57;80.79;98503.96;435220;1253;99323;-40
2023/12/28 14:35:51;;;;;;;38.50;18.80;;;;;;;7.50;81.13;98500.56;435325;1264;111365;-39
2023/12/28 14:45:58;;;;;;;31.20;15.90;;;;;;;7.36;81.21;98507.90;435181;1257;107583;-40
2023/12/28 14:56:06;;;;;;;34.90;17.30;;;;;;;7.21;81.27;98508.07;435414;1251;98815;-39
2023/12/28 15:06:13;;;;;;;23.90;14.40;;;;;;;7.13;81.38;98517.99;435245;1263;108909;-39
2023/12/28 15:16:18;;;;;;;29.00;13.60;;;;;;;7.11;81.55;98532.84;435143;1254;99259;-39
2023/12/28 15:36:30;;;;;;;44.60;26.90;;;;;;;6.85;81.76;98524.54;435291;1272;108462;-39
2023/12/28 15:46:36;;;;;;;47.30;26.10;;;;;;;6.63;81.88;98518.42;435317;1263;99154;-41
2023/12/28 15:56:43;;;;;;;59.40;30.20;;;;;;;6.47;81.77;98519.52;435312;1254;111835;-39
2023/12/28 16:06:50;;;;;;;41.60;19.20;;;;;;;6.37;82.00;98516.50;435303;1256;108751;-40
2023/12/28 16:27:03;;;;;;;81.20;38.60;;;;;;;6.11;82.31;98511.98;435482;1254;107719;-40
2023/12/28 16:37:10;;;;;;;58.90;29.30;;;;;;;5.98;82.60;98509.45;435437;1256;98017;-40
2023/12/28 16:47:17;;;;;;;38.30;22.90;;;;;;;5.93;82.67;98509.52;435443;1254;112420;-41
2023/12/28 16:57:25;;;;;;;39.90;22.40;;;;;;;5.83;82.89;98498.48;435352;1254;108635;-40
2023/12/28 17:27:41;;;;;;;29.60;17.30;;;;;;;5.68;83.37;98484.27;435376;1251;98590;-40
2023/12/28 17:47:52;;;;;;;39.40;21.80;;;;;;;5.40;83.65;98490.50;435318;1254;108663;-40
2023/12/28 18:08:07;;;;;;;33.60;18.50;;;;;;;5.17;83.75;98493.55;435421;1251;108045;-40
2023/12/28 18:28:19;;;;;;;54.80;29.60;;;;;;;4.91;84.02;98506.70;435129;1251;111640;-40
2023/12/28 18:38:27;;;;;;;33.40;18.70;;;;;;;4.73;84.28;98503.97;435335;1250;107121;-41
2023/12/28 18:48:35;;;;;;;29.40;18.10;;;;;;;4.69;84.31;98508.14;435375;1251;98039;-40
2023/12/28 18:58:40;;;;;;;34.70;18.70;;;;;;;4.62;84.45;98505.81;435342;1250;107837;-40
2023/12/28 19:08:45;;;;;;;60.70;27.40;;;;;;;4.50;84.64;98509.39;435467;1254;98819;-40
2023/12/28 19:18:52;;;;;;;61.50;32.10;;;;;;;4.34;84.87;98504.91;435472;1254;112168;-40
2023/12/28 19:28:59;;;;;;;40.00;22.80;;;;;;;4.27;84.92;98501.85;435392;1249;109663;-40
2023/12/28 19:49:12;;;;;;;44.60;26.00;;;;;;;4.25;85.12;98514.64;435377;1250;108297;-40
2023/12/28 19:59:20;;;;;;;59.00;30.60;;;;;;;4.20;85.40;98517.10;435478;1254;97992;-40
2023/12/28 20:09:27;;;;;;;58.00;30.30;;;;;;;4.05;85.52;98520.21;435457;1253;111696;-39
2023/12/28 20:49:53;;;;;;;55.60;29.10;;;;;;;3.91;85.91;98524.02;435312;1254;108987;-39
2023/12/28 21:00:00;;;;;;;55.80;26.90;;;;;;;3.79;86.11;98529.84;435423;1254;99201;-40
2023/12/28 21:10:07;;;;;;;33.20;19.10;;;;;;;3.72;86.14;98525.66;435367;1254;112370;-40
2023/12/28 21:20:12;;;;;;;26.00;16.20;;;;;;;3.73;86.20;98521.73;435430;1253;108564;-39
2023/12/28 21:30:19;;;;;;;32.30;19.40;;;;;;;3.73;86.58;98521.08;435300;1251;99224;-40
2023/12/28 21:40:26;;;;;;;42.10;19.60;;;;;;;3.66;86.80;98512.27;435547;1254;107732;-40
2023/12/28 21:50:32;;;;;;;33.90;19.50;;;;;;;3.56;86.85;98517.52;435291;1253;98011;-41
2023/12/28 22:10:45;;;;;;;30.00;18.10;;;;;;;3.62;87.21;98503.02;435249;1253;109394;-39
2023/12/28 22:20:51;;;;;;;39.00;20.80;;;;;;;3.67;87.19;98504.27;435383;1250;97979;-39
2023/12/28 22:30:55;;;;;;;53.30;27.60;;;;;;;3.63;87.38;98498.41;435315;1254;107580;-39
2023/12/28 23:11:21;;;;;;;34.60;20.50;;;;;;;4.04;88.08;98468.16;435330;1254;99218;-40
2023/12/28 23:21:29;;;;;;;54.80;28.50;;;;;;;4.08;88.13;98457.85;435351;1253;107877;-39
2023/12/28 23:31:36;;;;;;;49.20;26.10;;;;;;;4.12;88.34;98453.52;435513;1253;97999;-39
2023/12/28 23:41:43;;;;;;;28.30;20.40;;;;;;;4.32;88.50;98463.05;435464;1253;111284;-40
2023/12/28 23:51:50;;;;;;;32.30;19.00;;;;;;;4.53;88.53;98451.88;435451;1251;107043;-40
